createdAt,value
2023-03-26T00:01:26.162Z,2.25
2023-03-26T00:04:01.247Z,2.00
2023-03-26T00:06:31.863Z,2.33
2023-03-26T00:08:59.267Z,2.87
2023-03-26T00:11:28.021Z,2.45
2023-03-26T00:13:59.637Z,1.92
2023-03-26T00:16:29.557Z,1.77
2023-03-26T00:18:57.898Z,2.15
2023-03-26T00:21:28.221Z,2.13
2023-03-26T00:23:59.662Z,1.70
2023-03-26T00:26:29.348Z,2.15
2023-03-26T00:28:57.514Z,2.10
2023-03-26T00:31:24.960Z,2.42
2023-03-26T00:33:56.344Z,1.90
2023-03-26T00:36:26.709Z,1.85
2023-03-26T00:38:54.547Z,2.00
2023-03-26T00:41:25.989Z,2.22
2023-03-26T00:43:56.576Z,2.65
2023-03-26T00:46:25.497Z,2.30
2023-03-26T00:48:53.142Z,2.00
2023-03-26T00:51:21.400Z,2.40
2023-03-26T00:53:50.391Z,2.20
2023-03-26T00:56:19.037Z,2.40
2023-03-26T00:58:47.495Z,2.43
2023-03-26T01:01:18.897Z,2.08
2023-03-26T01:04:04.875Z,2.42
2023-03-26T01:06:37.213Z,2.60
2023-03-26T01:09:15.871Z,2.45
2023-03-26T01:11:43.800Z,2.30
2023-03-26T01:14:18.321Z,2.47
2023-03-26T01:16:52.840Z,2.20
2023-03-26T01:19:30.758Z,2.72
2023-03-26T01:21:58.998Z,2.60
2023-03-26T01:24:26.824Z,3.23
2023-03-26T01:27:05.986Z,2.97
2023-03-26T01:29:44.149Z,3.15
2023-03-26T01:32:33.281Z,3.00
2023-03-26T01:35:06.349Z,3.95
2023-03-26T01:37:58.777Z,3.50
2023-03-26T01:40:42.897Z,3.90
2023-03-26T01:43:13.324Z,3.83
2023-03-26T01:45:44.728Z,3.92
2023-03-26T01:48:12.870Z,5.00
2023-03-26T01:50:40.321Z,4.80
2023-03-26T01:53:09.447Z,4.70
2023-03-26T01:56:02.118Z,4.50
2023-03-26T01:58:39.572Z,4.50
2023-03-26T02:01:32.982Z,4.97
2023-03-26T02:04:18.160Z,5.73
2023-03-26T02:06:52.599Z,5.57
2023-03-26T02:09:28.598Z,5.00
2023-03-26T02:11:56.880Z,6.10
2023-03-26T02:14:25.308Z,7.57
2023-03-26T02:16:52.636Z,9.00
2023-03-26T02:19:21.846Z,8.65
2023-03-26T02:21:51.311Z,8.10
2023-03-26T02:24:20.660Z,7.20
2023-03-26T02:26:50.224Z,8.20
2023-03-26T02:29:20.480Z,8.37
2023-03-26T02:31:49.322Z,10.32
2023-03-26T02:34:17.333Z,8.30
2023-03-26T02:36:51.153Z,7.72
2023-03-26T02:39:18.496Z,7.85
2023-03-26T02:41:53.380Z,7.73
2023-03-26T02:44:20.868Z,7.63
2023-03-26T02:47:14.250Z,8.38
2023-03-26T02:49:41.462Z,8.40
2023-03-26T02:52:09.319Z,9.63
2023-03-26T02:54:36.964Z,8.93
2023-03-26T02:57:13.159Z,10.02
2023-03-26T02:59:40.328Z,10.70
2023-03-26T03:02:30.907Z,11.20
2023-03-26T03:05:08.428Z,7.13
2023-03-26T03:07:37.973Z,9.27
2023-03-26T03:10:09.907Z,9.75
2023-03-26T03:13:04.108Z,9.75
2023-03-26T03:15:31.332Z,9.63
2023-03-26T03:17:58.541Z,10.07
2023-03-26T03:20:30.347Z,11.57
2023-03-26T03:22:57.606Z,11.73
2023-03-26T03:25:25.976Z,11.82
2023-03-26T03:27:53.918Z,12.50
2023-03-26T03:30:21.365Z,11.82
2023-03-26T03:32:54.522Z,14.17
2023-03-26T03:35:25.010Z,14.15
2023-03-26T03:38:00.438Z,15.05
2023-03-26T03:40:30.709Z,13.07
2023-03-26T03:43:00.352Z,12.93
2023-03-26T03:45:37.089Z,14.87
2023-03-26T03:48:08.022Z,14.52
2023-03-26T03:50:41.932Z,14.85
2023-03-26T03:53:31.461Z,15.20
2023-03-26T03:56:01.940Z,14.63
2023-03-26T03:58:49.027Z,13.87
2023-03-26T04:01:24.588Z,13.27
2023-03-26T04:03:59.034Z,14.35
2023-03-26T04:06:38.755Z,13.93
2023-03-26T04:09:09.021Z,13.40
2023-03-26T04:11:36.966Z,13.10
2023-03-26T04:14:14.298Z,13.32
2023-03-26T04:16:53.577Z,13.18
2023-03-26T04:19:21.504Z,13.63
2023-03-26T04:21:49.496Z,12.30
2023-03-26T04:24:20.400Z,12.37
2023-03-26T04:27:25.570Z,11.52
2023-03-26T04:29:54.346Z,11.75
2023-03-26T04:32:30.177Z,12.20
2023-03-26T04:35:03.211Z,12.98
2023-03-26T04:37:34.336Z,12.97
2023-03-26T04:40:13.885Z,13.00
2023-03-26T04:42:54.485Z,12.90
2023-03-26T04:45:33.598Z,13.20
2023-03-26T04:48:01.070Z,12.30
2023-03-26T04:50:28.643Z,12.20
2023-03-26T04:52:57.401Z,13.10
2023-03-26T04:55:55.962Z,12.95
2023-03-26T04:58:43.405Z,12.32
2023-03-26T05:01:13.837Z,13.93
2023-03-26T05:03:45.514Z,13.90
2023-03-26T05:06:14.481Z,13.32
2023-03-26T05:08:42.078Z,13.82
2023-03-26T05:11:13.684Z,13.80
2023-03-26T05:13:42.750Z,12.40
2023-03-26T05:16:12.744Z,13.53
2023-03-26T05:18:49.318Z,13.02
2023-03-26T05:21:16.646Z,13.48
2023-03-26T05:23:44.308Z,12.68
2023-03-26T05:26:19.358Z,11.77
2023-03-26T05:28:46.551Z,14.40
2023-03-26T05:31:21.864Z,14.18
2023-03-26T05:33:54.958Z,14.63
2023-03-26T05:36:23.006Z,14.98
2023-03-26T05:39:02.239Z,16.15
2023-03-26T05:41:55.825Z,16.20
2023-03-26T05:44:29.412Z,16.35
2023-03-26T05:46:56.852Z,16.90
2023-03-26T05:49:27.198Z,16.30
2023-03-26T05:51:55.606Z,16.40
2023-03-26T05:54:52.459Z,17.83
2023-03-26T05:57:39.050Z,16.55
2023-03-26T06:00:38.396Z,18.35
2023-03-26T06:03:12.704Z,17.20
2023-03-26T06:06:15.374Z,17.67
2023-03-26T06:09:01.727Z,17.13
2023-03-26T06:11:31.777Z,16.65
2023-03-26T06:14:00.243Z,12.48
2023-03-26T06:16:28.396Z,11.88
2023-03-26T06:19:25.630Z,10.82
2023-03-26T06:21:59.488Z,11.00
2023-03-26T06:24:32.820Z,10.80
2023-03-26T06:27:19.513Z,11.93
2023-03-26T06:30:13.212Z,10.50
2023-03-26T06:33:00.313Z,8.48
2023-03-26T06:35:32.269Z,5.47
2023-03-26T06:37:59.940Z,5.38
2023-03-26T06:40:28.929Z,5.72
2023-03-26T06:43:25.428Z,5.60
2023-03-26T06:46:11.766Z,6.90
2023-03-26T06:48:40.251Z,6.60
2023-03-26T06:51:30.268Z,6.20
2023-03-26T06:54:20.403Z,6.80
2023-03-26T06:56:53.629Z,6.53
2023-03-26T06:59:26.557Z,5.80
2023-03-26T07:02:12.200Z,6.57
2023-03-26T07:04:58.337Z,6.13
2023-03-26T07:07:46.536Z,5.80
2023-03-26T07:10:33.730Z,5.20
2023-03-26T07:13:30.891Z,6.10
2023-03-26T07:16:16.807Z,6.13
2023-03-26T07:19:13.142Z,6.43
2023-03-26T07:21:42.658Z,7.25
2023-03-26T07:24:42.029Z,5.07
2023-03-26T07:27:23.390Z,6.25
2023-03-26T07:30:11.977Z,6.63
2023-03-26T07:33:31.913Z,5.28
2023-03-26T07:36:36.030Z,5.43
2023-03-26T07:39:44.335Z,4.97
2023-03-26T07:42:53.133Z,3.72
2023-03-26T07:45:54.476Z,2.83
2023-03-26T07:48:48.737Z,3.28
2023-03-26T07:51:34.259Z,3.10
2023-03-26T07:54:11.153Z,2.88
2023-03-26T07:56:58.033Z,3.25
2023-03-26T07:59:43.003Z,2.67
2023-03-26T08:02:37.533Z,2.63
2023-03-26T08:05:44.935Z,3.70
2023-03-26T08:08:29.526Z,3.63
2023-03-26T08:11:57.514Z,3.80
2023-03-26T08:14:51.332Z,3.27
2023-03-26T08:17:30.978Z,3.03
2023-03-26T08:20:18.439Z,2.90
2023-03-26T08:22:50.752Z,3.05
2023-03-26T08:25:33.633Z,2.88
2023-03-26T08:28:20.872Z,2.60
2023-03-26T08:30:48.311Z,2.47
2023-03-26T08:33:19.130Z,2.78
2023-03-26T08:35:47.693Z,2.45
2023-03-26T08:38:19.053Z,2.55
2023-03-26T08:41:10.450Z,2.60
2023-03-26T08:43:40.351Z,2.45
2023-03-26T08:46:46.319Z,2.55
2023-03-26T08:49:39.742Z,4.03
2023-03-26T08:52:32.419Z,2.58
2023-03-26T08:55:33.048Z,3.03
2023-03-26T08:58:21.663Z,2.88
2023-03-26T09:01:11.298Z,2.80
2023-03-26T09:04:04.565Z,2.28
2023-03-26T09:07:01.709Z,2.10
2023-03-26T09:09:46.987Z,3.03
2023-03-26T09:12:57.364Z,2.78
2023-03-26T09:16:05.499Z,2.60
2023-03-26T09:18:49.994Z,2.83
2023-03-26T09:22:00.799Z,2.55
2023-03-26T09:24:57.006Z,2.33
2023-03-26T09:27:35.469Z,2.58
2023-03-26T09:30:55.927Z,2.80
2023-03-26T09:33:59.954Z,2.33
2023-03-26T09:37:05.797Z,2.47
2023-03-26T09:39:57.694Z,2.70
2023-03-26T09:42:45.467Z,2.42
2023-03-26T09:45:32.624Z,3.13
2023-03-26T09:48:18.909Z,2.65
2023-03-26T09:51:03.765Z,3.60
2023-03-26T09:53:50.549Z,2.43
2023-03-26T09:56:48.353Z,2.50
2023-03-26T09:59:37.956Z,2.50
2023-03-26T10:02:45.520Z,2.45
2023-03-26T10:05:46.193Z,2.58
2023-03-26T10:08:53.934Z,3.03
2023-03-26T10:11:36.009Z,2.70
2023-03-26T10:14:22.736Z,2.50
2023-03-26T10:17:09.473Z,2.40
2023-03-26T10:19:57.057Z,2.53
2023-03-26T10:22:47.105Z,2.50
2023-03-26T10:25:24.874Z,2.53
2023-03-26T10:28:20.577Z,2.30
2023-03-26T10:31:25.637Z,2.55
2023-03-26T10:34:29.679Z,2.65
2023-03-26T10:37:29.977Z,2.23
2023-03-26T10:40:06.738Z,2.17
2023-03-26T10:43:12.337Z,3.17
2023-03-26T10:46:22.802Z,2.58
2023-03-26T10:49:16.358Z,2.72
2023-03-26T10:51:51.270Z,3.60
2023-03-26T10:54:57.716Z,2.33
2023-03-26T10:57:43.679Z,2.60
2023-03-26T11:00:26.354Z,2.72
2023-03-26T11:03:18.759Z,3.05
2023-03-26T11:06:06.995Z,2.70
2023-03-26T11:08:39.425Z,2.92
2023-03-26T11:11:31.804Z,2.88
2023-03-26T11:14:01.823Z,3.03
2023-03-26T11:16:52.129Z,2.97
2023-03-26T11:19:29.399Z,3.07
2023-03-26T11:22:28.679Z,3.03
2023-03-26T11:25:08.810Z,2.88
2023-03-26T11:28:17.306Z,4.18
2023-03-26T11:30:59.042Z,2.40
2023-03-26T11:33:36.609Z,2.60
2023-03-26T11:36:09.644Z,3.38
2023-03-26T11:38:41.906Z,3.05
2023-03-26T11:41:22.805Z,2.88
2023-03-26T11:44:21.713Z,3.05
2023-03-26T11:46:52.544Z,2.60
2023-03-26T11:49:21.926Z,3.03
2023-03-26T11:51:49.280Z,3.08
2023-03-26T11:54:17.901Z,2.63
2023-03-26T11:57:05.852Z,2.35
2023-03-26T11:59:56.635Z,2.60
2023-03-26T12:02:29.110Z,2.83
2023-03-26T12:05:12.041Z,3.08
2023-03-26T12:07:59.468Z,2.42
2023-03-26T12:10:31.048Z,2.72
2023-03-26T12:13:01.920Z,2.77
2023-03-26T12:15:31.519Z,2.35
2023-03-26T12:18:17.877Z,2.25
2023-03-26T12:20:45.359Z,2.63
2023-03-26T12:23:35.052Z,2.42
2023-03-26T12:26:14.907Z,2.30
2023-03-26T12:28:50.417Z,2.38
2023-03-26T12:31:19.359Z,2.72
2023-03-26T12:34:13.977Z,2.33
2023-03-26T12:36:49.283Z,2.88
2023-03-26T12:40:07.726Z,2.10
2023-03-26T12:44:44.367Z,2.58
2023-03-26T12:45:27.641Z,2.53
2023-03-26T12:48:04.197Z,2.50
2023-03-26T12:50:54.738Z,2.40
2023-03-26T12:53:41.997Z,1.90
2023-03-26T12:56:27.194Z,2.25
2023-03-26T12:59:32.685Z,2.72
2023-03-26T13:02:37.559Z,2.13
2023-03-26T13:05:17.670Z,2.30
2023-03-26T13:08:18.570Z,2.57
2023-03-26T13:10:49.440Z,2.20
2023-03-26T13:13:25.274Z,2.38
2023-03-26T13:15:56.751Z,2.80
2023-03-26T13:18:50.655Z,2.97
2023-03-26T13:21:51.260Z,2.60
2023-03-26T13:24:38.059Z,2.38
2023-03-26T13:27:11.035Z,2.72
2023-03-26T13:29:56.463Z,2.80
2023-03-26T13:32:58.538Z,2.60
2023-03-26T13:35:43.527Z,2.70
2023-03-26T13:38:20.166Z,2.17
2023-03-26T13:41:17.525Z,2.58
2023-03-26T13:44:23.662Z,2.17
2023-03-26T13:46:55.111Z,2.30
2023-03-26T13:49:40.236Z,2.30
2023-03-26T13:52:28.720Z,2.67
2023-03-26T13:55:23.855Z,2.15
2023-03-26T13:58:11.344Z,2.10
2023-03-26T14:00:54.586Z,2.03
2023-03-26T14:03:51.429Z,2.27
2023-03-26T14:06:46.769Z,1.98
2023-03-26T14:09:26.558Z,2.10
2023-03-26T14:11:57.907Z,2.10
2023-03-26T14:14:43.364Z,2.25
2023-03-26T14:17:36.407Z,2.13
2023-03-26T14:20:19.805Z,1.95
2023-03-26T14:23:18.228Z,2.45
2023-03-26T14:26:06.708Z,2.63
2023-03-26T14:28:33.822Z,2.17
2023-03-26T14:31:23.778Z,2.40
2023-03-26T14:34:12.075Z,2.10
2023-03-26T14:36:58.999Z,2.30
2023-03-26T14:40:14.740Z,2.15
2023-03-26T14:43:01.521Z,2.10
2023-03-26T14:46:05.699Z,1.83
2023-03-26T14:49:01.841Z,1.85
2023-03-26T14:52:01.122Z,1.90
2023-03-26T14:54:32.274Z,1.67
2023-03-26T14:57:41.717Z,1.92
2023-03-26T15:00:33.761Z,1.97
2023-03-26T15:03:09.959Z,1.50
2023-03-26T15:06:21.034Z,1.80
2023-03-26T15:09:25.962Z,1.95
2023-03-26T15:12:27.157Z,1.85
2023-03-26T15:15:16.310Z,1.63
2023-03-26T15:18:02.760Z,1.70
2023-03-26T15:20:42.504Z,1.73
2023-03-26T15:23:38.313Z,2.03
2023-03-26T15:26:44.067Z,2.33
2023-03-26T15:29:45.896Z,1.50
2023-03-26T15:32:49.365Z,1.80
2023-03-26T15:35:26.194Z,1.58
2023-03-26T15:38:30.142Z,1.80
2023-03-26T15:41:00.564Z,1.58
2023-03-26T15:46:37.876Z,1.75
2023-03-26T15:49:23.571Z,2.28
2023-03-26T15:52:32.981Z,2.17
2023-03-26T15:55:04.230Z,2.25
2023-03-26T15:57:44.618Z,2.07
2023-03-26T16:00:24.697Z,1.92
2023-03-26T16:03:10.241Z,1.73
2023-03-26T16:05:47.469Z,1.70
2023-03-26T16:08:14.760Z,1.98
2023-03-26T16:10:47.451Z,2.23
2023-03-26T16:13:23.417Z,2.03
2023-03-26T16:15:56.989Z,1.77
2023-03-26T16:18:53.311Z,1.83
2023-03-26T16:21:34.297Z,1.50
2023-03-26T16:24:07.906Z,1.70
2023-03-26T16:26:44.102Z,1.73
2023-03-26T16:29:17.873Z,1.73
2023-03-26T16:32:10.939Z,1.25
2023-03-26T16:34:54.768Z,1.52
2023-03-26T16:37:39.600Z,1.73
2023-03-26T16:40:22.298Z,1.40
2023-03-26T16:43:06.173Z,1.27
2023-03-26T16:45:42.238Z,1.92
2023-03-26T16:48:35.870Z,1.23
2023-03-26T16:51:24.991Z,1.70
2023-03-26T16:54:04.061Z,1.67
2023-03-26T16:56:42.248Z,1.63
2023-03-26T16:59:43.018Z,1.35
2023-03-26T17:02:42.539Z,1.65
2023-03-26T17:05:17.690Z,1.53
2023-03-26T17:07:53.988Z,1.60
2023-03-26T17:10:47.593Z,1.40
2023-03-26T17:13:25.855Z,1.70
2023-03-26T17:16:11.614Z,1.20
2023-03-26T17:18:53.552Z,2.47
2023-03-26T17:21:46.157Z,1.77
2023-03-26T17:24:45.545Z,1.80
2023-03-26T17:27:39.842Z,1.70
2023-03-26T17:30:38.350Z,1.90
2023-03-26T17:33:05.867Z,1.27
2023-03-26T17:35:50.419Z,1.58
2023-03-26T17:38:17.670Z,1.50
2023-03-26T17:40:58.424Z,1.85
2023-03-26T17:43:42.236Z,1.75
2023-03-26T17:46:45.081Z,1.60
2023-03-26T17:49:13.958Z,1.60
2023-03-26T17:52:05.485Z,1.50
2023-03-26T17:54:45.610Z,1.35
2023-03-26T17:57:40.135Z,1.73
2023-03-26T18:00:34.437Z,1.63
2023-03-26T18:03:18.360Z,1.50
2023-03-26T18:05:46.988Z,1.80
2023-03-26T18:08:36.983Z,1.75
2023-03-26T18:11:22.071Z,2.03
2023-03-26T18:14:10.803Z,1.50
2023-03-26T18:16:49.257Z,1.65
2023-03-26T18:19:22.663Z,1.75
2023-03-26T18:21:56.725Z,1.58
2023-03-26T18:24:31.227Z,1.98
2023-03-26T18:27:04.873Z,1.40
2023-03-26T18:29:35.280Z,1.50
2023-03-26T18:32:07.333Z,1.88
2023-03-26T18:34:37.989Z,2.08
2023-03-26T18:37:11.215Z,1.92
2023-03-26T18:39:38.709Z,1.67
2023-03-26T18:42:06.504Z,1.58
2023-03-26T18:44:36.736Z,1.27
2023-03-26T18:47:09.515Z,1.60
2023-03-26T18:49:36.724Z,1.35
2023-03-26T18:52:04.363Z,1.40
2023-03-26T18:54:35.444Z,1.50
2023-03-26T18:57:23.794Z,3.05
2023-03-26T18:59:53.988Z,1.67
2023-03-26T19:02:22.184Z,2.00
2023-03-26T19:04:51.960Z,1.60
2023-03-26T19:07:24.121Z,1.33
2023-03-26T19:09:56.119Z,1.30
2023-03-26T19:12:29.241Z,1.35
2023-03-26T19:15:15.704Z,1.95
2023-03-26T19:17:46.333Z,1.53
2023-03-26T19:20:29.510Z,1.52
2023-03-26T19:22:57.900Z,1.50
2023-03-26T19:25:51.299Z,1.70
2023-03-26T19:28:28.873Z,1.42
2023-03-26T19:30:59.957Z,1.60
2023-03-26T19:33:35.004Z,1.30
2023-03-26T19:36:06.019Z,2.15
2023-03-26T19:38:44.539Z,1.70
2023-03-26T19:41:21.525Z,1.55
2023-03-26T19:43:55.814Z,1.57
2023-03-26T19:46:25.044Z,1.10
2023-03-26T19:48:55.439Z,1.58
2023-03-26T19:51:36.928Z,1.83
2023-03-26T19:54:13.885Z,2.05
2023-03-26T19:56:41.579Z,1.50
2023-03-26T19:59:08.882Z,1.40
2023-03-26T20:01:36.493Z,1.77
2023-03-26T20:04:06.626Z,1.58
2023-03-26T20:06:43.172Z,1.50
2023-03-26T20:09:12.855Z,1.60
2023-03-26T20:11:40.837Z,1.13
2023-03-26T20:14:17.290Z,1.42
2023-03-26T20:16:45.650Z,1.30
2023-03-26T20:19:14.876Z,1.90
2023-03-26T20:21:45.881Z,1.73
2023-03-26T20:24:17.927Z,1.30
2023-03-26T20:26:48.229Z,1.95
2023-03-26T20:29:15.886Z,1.88
2023-03-26T20:31:43.864Z,1.77
2023-03-26T20:34:20.341Z,1.37
2023-03-26T20:36:48.102Z,1.30
2023-03-26T20:39:15.398Z,1.77
2023-03-26T20:41:47.675Z,1.55
2023-03-26T20:44:18.380Z,2.13
2023-03-26T20:46:48.466Z,1.50
2023-03-26T20:49:16.372Z,1.77
2023-03-26T20:51:45.251Z,1.95
2023-03-26T20:54:21.937Z,1.70
2023-03-26T20:56:50.115Z,1.55
2023-03-26T20:59:21.585Z,1.30
2023-03-26T21:01:50.026Z,1.85
2023-03-26T21:04:19.129Z,1.55
2023-03-26T21:06:46.448Z,1.33
2023-03-26T21:09:17.688Z,1.60
2023-03-26T21:12:00.662Z,1.43
2023-03-26T21:14:41.559Z,1.40
2023-03-26T21:17:28.079Z,1.70
2023-03-26T21:19:55.744Z,1.45
2023-03-26T21:22:35.937Z,1.58
2023-03-26T21:25:21.036Z,1.37
2023-03-26T21:27:59.099Z,1.70
2023-03-26T21:30:26.496Z,1.25
2023-03-26T21:32:54.197Z,1.10
2023-03-26T21:35:21.903Z,1.55
2023-03-26T21:37:49.717Z,1.73
2023-03-26T21:40:18.656Z,1.48
2023-03-26T21:42:49.106Z,1.55
2023-03-26T21:45:18.067Z,1.20
2023-03-26T21:47:46.358Z,1.42
2023-03-26T21:50:17.191Z,1.30
2023-03-26T21:52:50.854Z,1.50
2023-03-26T21:55:19.999Z,1.50
2023-03-26T21:58:01.541Z,1.30
2023-03-26T22:00:43.677Z,1.40
2023-03-26T22:03:34.529Z,1.20
2023-03-26T22:06:16.018Z,1.60
2023-03-26T22:08:43.410Z,1.40
2023-03-26T22:11:12.209Z,1.17
2023-03-26T22:13:39.459Z,1.65
2023-03-26T22:16:08.763Z,1.17
2023-03-26T22:18:36.358Z,1.60
2023-03-26T22:21:04.597Z,1.60
2023-03-26T22:23:36.443Z,1.83
2023-03-26T22:26:05.835Z,1.95
2023-03-26T22:28:33.031Z,2.00
2023-03-26T22:31:07.053Z,1.33
2023-03-26T22:33:36.020Z,1.60
2023-03-26T22:36:03.500Z,1.77
2023-03-26T22:38:30.716Z,1.80
2023-03-26T22:40:58.674Z,1.70
2023-03-26T22:43:26.131Z,1.42
2023-03-26T22:45:54.533Z,1.50
2023-03-26T22:48:23.423Z,1.67
2023-03-26T22:51:05.000Z,1.80
2023-03-26T22:53:32.564Z,1.50
2023-03-26T22:56:00.333Z,1.33
2023-03-26T22:58:28.244Z,1.67
2023-03-26T23:01:08.288Z,1.60
2023-03-26T23:03:37.056Z,1.55
2023-03-26T23:06:07.523Z,1.40
2023-03-26T23:08:35.235Z,1.25
2023-03-26T23:11:02.517Z,1.35
2023-03-26T23:13:29.700Z,1.15
2023-03-26T23:15:57.170Z,1.20
2023-03-26T23:18:24.815Z,1.13
2023-03-26T23:20:55.374Z,1.02
2023-03-26T23:23:28.666Z,1.27
2023-03-26T23:25:58.857Z,1.13
2023-03-26T23:28:27.399Z,1.42
2023-03-26T23:30:54.895Z,1.17
2023-03-26T23:33:24.401Z,1.13
2023-03-26T23:35:56.910Z,1.08
2023-03-26T23:38:26.132Z,1.13
2023-03-26T23:40:57.338Z,1.08
2023-03-26T23:43:26.230Z,1.43
2023-03-26T23:45:54.152Z,1.33
2023-03-26T23:48:23.665Z,1.10
2023-03-26T23:50:52.741Z,1.17
2023-03-26T23:53:31.965Z,1.20
2023-03-26T23:55:59.203Z,1.00
2023-03-26T23:58:30.097Z,1.45
